Time;durP1;ratioP1;P1;durP2;ratioP2;P2;SDS_P1;SDS_P2;PMS_P1;PMS_P2;Temp;Humidity;BMP_temperature;BMP_pressure;BME280_temperature;BME280_humidity;BME280_pressure;Samples;Min_cycle;Max_cycle;Signal;HPM_P1;HPM_P2
2022/06/03 00:00:21;;;;;;;21.55;11.93;;;;;;;;;;6274562;22;20413;-84
2022/06/03 00:03:11;;;;;;;18.33;11.87;;;;;;;;;;6276017;22;20012;-82
2022/06/03 00:05:55;;;;;;;;;;;;;;;;;;6276356;22;20004;-82
2022/06/03 00:08:39;;;;;;;16.55;10.70;;;;;;;;;;6279240;22;19895;-84
2022/06/03 00:11:24;;;;;;;17.90;11.18;;;;;;;;;;6277291;22;20038;-83
2022/06/03 00:14:09;;;;;;;21.13;12.20;;;;;;;;;;6274397;22;20000;-84
2022/06/03 00:16:40;;;;;;;15.63;11.48;;;;;;;;;;6275727;22;20019;-84
2022/06/03 00:19:17;;;;;;;24.30;11.93;;;;;;;;;;6270298;22;20015;-83
2022/06/03 00:22:07;;;;;;;20.30;11.82;;;;;;;;;;6252863;22;20015;-84
2022/06/03 00:24:41;;;;;;;16.30;12.45;;;;;;;;;;6275601;22;20012;-83
2022/06/03 00:27:16;;;;;;;24.55;12.23;;;;;;;;;;6249001;22;20004;-84
2022/06/03 00:30:03;;;;;;;22.35;12.65;;;;;;;;;;6276302;22;20007;-83
2022/06/03 00:32:40;;;;;;;18.65;12.02;;;;;;;;;;6289782;22;19992;-84
2022/06/03 00:35:36;;;;;;;20.58;12.48;;;;;;;;;;6250614;22;20034;-85
2022/06/03 00:38:02;;;;;;;20.75;12.43;;;;;;;;;;6248222;22;20010;-84
2022/06/03 00:40:46;;;;;;;28.02;13.75;;;;;;;;;;6275488;22;19999;-84
2022/06/03 00:43:23;;;;;;;22.08;12.77;;;;;;;;;;6275359;22;20023;-84
2022/06/03 00:46:20;;;;;;;22.27;12.45;;;;;;;;;;6275411;22;20388;-84
2022/06/03 00:49:07;;;;;;;23.88;12.65;;;;;;;;;;6275560;22;20031;-84
2022/06/03 00:52:11;;;;;;;19.02;12.77;;;;;;;;;;6275041;22;20014;-84
2022/06/03 00:54:59;;;;;;;18.52;13.20;;;;;;;;;;6253223;22;20003;-84
2022/06/03 00:58:14;;;;;;;24.92;13.20;;;;;;;;;;6204556;22;20045;-84
2022/06/03 01:01:03;;;;;;;22.40;12.75;;;;;;;;;;6242098;22;20007;-84
2022/06/03 01:03:34;;;;;;;29.85;13.77;;;;;;;;;;6204419;22;20012;-84
2022/06/03 01:06:39;;;;;;;21.08;13.05;;;;;;;;;;6275162;22;20094;-83
2022/06/03 01:09:18;;;;;;;24.50;12.45;;;;;;;;;;6252263;22;20062;-84
2022/06/03 01:12:11;;;;;;;17.42;12.32;;;;;;;;;;6248868;22;20050;-83
2022/06/03 01:15:14;;;;;;;26.13;13.55;;;;;;;;;;6275185;22;20075;-84
2022/06/03 01:17:50;;;;;;;24.58;13.27;;;;;;;;;;6275611;22;20094;-84
2022/06/03 01:20:44;;;;;;;25.33;13.98;;;;;;;;;;6277205;22;20003;-84
2022/06/03 01:23:37;;;;;;;30.38;16.02;;;;;;;;;;6260800;22;20058;-83
2022/06/03 01:26:11;;;;;;;28.63;14.38;;;;;;;;;;6275508;22;20094;-84
2022/06/03 01:29:00;;;;;;;26.20;14.95;;;;;;;;;;6248888;22;20034;-84
2022/06/03 01:32:08;;;;;;;25.58;13.93;;;;;;;;;;6250103;22;20061;-85
2022/06/03 01:34:34;;;;;;;31.85;14.20;;;;;;;;;;6248033;22;20000;-84
2022/06/03 01:37:29;;;;;;;22.88;14.45;;;;;;;;;;6274962;22;20338;-84
2022/06/03 01:40:33;;;;;;;24.10;14.65;;;;;;;;;;6224180;22;20393;-84
2022/06/03 01:43:17;;;;;;;27.98;14.75;;;;;;;;;;6275079;22;20604;-83
2022/06/03 01:46:12;;;;;;;28.58;13.95;;;;;;;;;;6248044;22;20007;-83
2022/06/03 01:48:56;;;;;;;24.40;14.23;;;;;;;;;;6224633;22;20010;-84
2022/06/03 01:51:29;;;;;;;26.42;14.68;;;;;;;;;;6275164;22;20078;-85
2022/06/03 01:54:06;;;;;;;27.40;15.15;;;;;;;;;;6275084;22;20073;-83
2022/06/03 01:57:04;;;;;;;23.23;14.32;;;;;;;;;;6275131;22;20004;-84
2022/06/03 01:59:40;;;;;;;24.58;14.35;;;;;;;;;;6191569;22;20010;-84
2022/06/03 02:02:29;;;;;;;24.80;14.02;;;;;;;;;;6247993;22;20008;-84
2022/06/03 02:05:25;;;;;;;26.58;14.52;;;;;;;;;;6250180;22;20137;-84
2022/06/03 02:08:36;;;;;;;26.95;14.70;;;;;;;;;;6247921;22;20032;-85
2022/06/03 02:11:21;;;;;;;23.42;14.90;;;;;;;;;;6259126;22;20004;-84
2022/06/03 02:13:58;;;;;;;25.80;15.82;;;;;;;;;;6197562;22;20453;-84
2022/06/03 02:16:34;;;;;;;26.75;16.63;;;;;;;;;;6256241;22;20011;-83
2022/06/03 02:19:36;;;;;;;27.13;16.48;;;;;;;;;;6273221;22;20007;-83
2022/06/03 02:22:40;;;;;;;22.20;15.50;;;;;;;;;;6274905;22;20011;-84
2022/06/03 02:25:24;;;;;;;22.98;15.27;;;;;;;;;;6238282;22;20004;-84
2022/06/03 02:28:10;;;;;;;23.17;14.70;;;;;;;;;;6278474;22;20011;-84
2022/06/03 02:30:54;;;;;;;25.33;15.25;;;;;;;;;;6275345;22;20023;-84
2022/06/03 02:33:36;;;;;;;26.70;15.27;;;;;;;;;;6274595;22;20419;-84
2022/06/03 02:36:38;;;;;;;25.02;15.18;;;;;;;;;;6273470;22;20004;-84
2022/06/03 02:39:13;;;;;;;25.33;14.75;;;;;;;;;;6274818;22;20048;-83
2022/06/03 02:42:03;;;;;;;20.98;14.93;;;;;;;;;;6274561;22;20008;-83
2022/06/03 02:45:07;;;;;;;30.95;15.40;;;;;;;;;;6275001;22;20035;-82
2022/06/03 02:47:53;;;;;;;25.88;15.32;;;;;;;;;;6173368;22;20095;-84
2022/06/03 02:50:42;;;;;;;24.90;14.68;;;;;;;;;;6279770;22;20004;-83
2022/06/03 02:53:29;;;;;;;40.65;14.65;;;;;;;;;;6274732;22;20099;-83
2022/06/03 02:56:00;;;;;;;27.17;14.68;;;;;;;;;;6274653;22;20082;-83
2022/06/03 02:58:34;;;;;;;32.38;14.73;;;;;;;;;;6247629;22;20004;-83
2022/06/03 03:01:08;;;;;;;24.17;15.15;;;;;;;;;;6274986;22;20057;-84
2022/06/03 03:04:03;;;;;;;20.27;14.35;;;;;;;;;;6276503;22;20030;-83
2022/06/03 03:06:44;;;;;;;24.38;14.43;;;;;;;;;;6255395;22;20004;-83
2022/06/03 03:09:29;;;;;;;26.58;15.65;;;;;;;;;;6275578;22;20403;-83
2022/06/03 03:12:23;;;;;;;29.75;14.95;;;;;;;;;;6276790;22;20087;-83
2022/06/03 03:15:10;;;;;;;26.75;14.88;;;;;;;;;;6275333;22;20350;-83
2022/06/03 03:17:45;;;;;;;26.40;15.60;;;;;;;;;;6276192;22;20097;-84
2022/06/03 03:20:35;;;;;;;25.15;13.95;;;;;;;;;;6276757;22;20000;-84
2022/06/03 03:23:21;;;;;;;25.45;14.73;;;;;;;;;;6276275;22;20015;-83
2022/06/03 03:26:17;;;;;;;33.28;14.32;;;;;;;;;;6276846;22;20326;-84
2022/06/03 03:28:51;;;;;;;36.40;15.48;;;;;;;;;;6253258;22;20411;-84
2022/06/03 03:31:55;;;;;;;28.10;15.07;;;;;;;;;;6275878;22;20004;-83
2022/06/03 03:34:40;;;;;;;35.20;14.68;;;;;;;;;;6253841;22;20011;-84
2022/06/03 03:37:14;;;;;;;26.52;15.43;;;;;;;;;;6275910;22;20011;-83
2022/06/03 03:40:16;;;;;;;28.48;14.65;;;;;;;;;;6275974;22;20015;-83
2022/06/03 03:42:57;;;;;;;22.17;14.70;;;;;;;;;;6275889;22;20014;-84
2022/06/03 03:45:40;;;;;;;30.45;14.90;;;;;;;;;;6287525;22;19999;-82
2022/06/03 03:48:24;;;;;;;23.90;15.07;;;;;;;;;;6288329;22;20011;-84
2022/06/03 03:51:16;;;;;;;19.35;14.25;;;;;;;;;;6276062;22;19996;-84
2022/06/03 03:54:13;;;;;;;28.02;14.65;;;;;;;;;;6250342;22;20081;-84
2022/06/03 03:57:00;;;;;;;32.80;13.40;;;;;;;;;;6251637;22;19996;-83
2022/06/03 03:59:54;;;;;;;20.98;14.15;;;;;;;;;;6276712;22;20015;-84
2022/06/03 04:02:25;;;;;;;26.33;13.32;;;;;;;;;;6275663;22;20006;-83
2022/06/03 04:05:20;;;;;;;29.63;13.98;;;;;;;;;;6275954;22;20078;-84
2022/06/03 04:07:51;;;;;;;24.90;13.32;;;;;;;;;;6141322;22;20013;-84
2022/06/03 04:10:22;;;;;;;21.58;12.77;;;;;;;;;;6275856;22;20004;-82
2022/06/03 04:13:03;;;;;;;21.42;13.57;;;;;;;;;;6275341;22;20012;-83
2022/06/03 04:15:53;;;;;;;19.67;12.25;;;;;;;;;;6248893;22;20600;-83
2022/06/03 04:18:29;;;;;;;;;;;;;;;;;;6276462;22;20004;-83
2022/06/03 04:21:32;;;;;;;21.23;13.20;;;;;;;;;;6282484;22;19903;-85
2022/06/03 04:24:26;;;;;;;22.75;12.70;;;;;;;;;;6275913;22;20011;-82
2022/06/03 04:27:16;;;;;;;25.52;13.52;;;;;;;;;;6273572;22;20116;-83
2022/06/03 04:30:16;;;;;;;20.00;12.85;;;;;;;;;;6274809;22;20082;-83
2022/06/03 04:33:15;;;;;;;21.73;12.70;;;;;;;;;;6248209;22;20006;-84
2022/06/03 04:36:23;;;;;;;30.75;13.32;;;;;;;;;;6275245;22;20004;-83
2022/06/03 04:39:06;;;;;;;25.27;14.82;;;;;;;;;;6122863;23;20492;-81
2022/06/03 04:41:53;;;;;;;21.23;12.68;;;;;;;;;;6122255;23;20006;-81
2022/06/03 04:44:43;;;;;;;21.48;12.68;;;;;;;;;;6233089;22;20034;-83
2022/06/03 04:47:26;;;;;;;22.92;13.07;;;;;;;;;;6272690;22;20008;-79
2022/06/03 04:50:10;;;;;;;31.95;17.58;;;;;;;;;;6273781;22;20007;-82
2022/06/03 04:52:57;;;;;;;28.75;13.55;;;;;;;;;;6273187;22;20004;-83
2022/06/03 04:56:01;;;;;;;25.02;12.75;;;;;;;;;;6275646;22;20721;-78
2022/06/03 04:58:57;;;;;;;19.00;12.52;;;;;;;;;;6250363;22;20007;-79
2022/06/03 05:02:14;;;;;;;27.10;11.90;;;;;;;;;;6225522;22;20079;-82
2022/06/03 05:04:56;;;;;;;28.13;12.77;;;;;;;;;;6212594;22;20593;-82
2022/06/03 05:07:28;;;;;;;20.63;13.18;;;;;;;;;;6274240;22;20030;-83
2022/06/03 05:10:12;;;;;;;21.05;12.57;;;;;;;;;;6275317;22;20488;-80
2022/06/03 05:12:58;;;;;;;25.88;12.32;;;;;;;;;;6277047;22;20029;-77
2022/06/03 05:15:26;;;;;;;28.88;12.63;;;;;;;;;;6275150;22;20026;-80
2022/06/03 05:18:01;;;;;;;20.50;12.50;;;;;;;;;;6273732;22;20027;-80
2022/06/03 05:20:29;;;;;;;19.70;12.32;;;;;;;;;;6279299;22;19996;-81
2022/06/03 05:23:19;;;;;;;23.20;12.52;;;;;;;;;;6253795;22;20015;-82
2022/06/03 05:26:16;;;;;;;17.70;12.30;;;;;;;;;;6277239;22;20003;-80
2022/06/03 05:28:48;;;;;;;17.40;11.25;;;;;;;;;;6275082;22;20006;-79
2022/06/03 05:32:18;;;;;;;19.70;11.38;;;;;;;;;;6275129;22;20034;-81
2022/06/03 05:35:02;;;;;;;21.15;10.88;;;;;;;;;;6152092;23;20006;-80
2022/06/03 05:37:46;;;;;;;18.25;10.60;;;;;;;;;;6272211;22;20446;-78
2022/06/03 05:40:35;;;;;;;20.05;10.88;;;;;;;;;;6278746;22;20423;-80
2022/06/03 05:43:13;;;;;;;18.42;11.23;;;;;;;;;;6274931;22;20008;-81
2022/06/03 05:46:00;;;;;;;25.90;10.52;;;;;;;;;;6272537;22;20010;-78
2022/06/03 05:48:39;;;;;;;14.80;9.93;;;;;;;;;;6279707;22;20023;-82
2022/06/03 05:51:44;;;;;;;16.98;10.35;;;;;;;;;;6246942;22;20094;-80
2022/06/03 05:54:24;;;;;;;18.65;10.00;;;;;;;;;;6144275;22;20008;-78
2022/06/03 05:56:59;;;;;;;21.20;15.15;;;;;;;;;;6270657;22;20436;-79
2022/06/03 05:59:36;;;;;;;19.35;12.77;;;;;;;;;;6243449;22;20000;-82
2022/06/03 06:02:33;;;;;;;13.80;10.02;;;;;;;;;;6246429;22;20004;-80
2022/06/03 06:05:29;;;;;;;14.82;10.48;;;;;;;;;;6216927;22;20003;-81
2022/06/03 06:08:25;;;;;;;13.18;9.68;;;;;;;;;;6227095;22;20004;-82
2022/06/03 06:11:07;;;;;;;18.77;9.05;;;;;;;;;;6277305;22;20004;-80
2022/06/03 06:13:44;;;;;;;14.77;9.30;;;;;;;;;;6247542;22;20014;-80
2022/06/03 06:16:28;;;;;;;17.13;9.20;;;;;;;;;;6275564;22;20003;-82
2022/06/03 06:19:09;;;;;;;13.52;8.70;;;;;;;;;;6275219;22;20004;-80
2022/06/03 06:22:07;;;;;;;14.38;8.63;;;;;;;;;;6272824;22;20426;-79
2022/06/03 06:24:35;;;;;;;15.20;10.23;;;;;;;;;;6272717;22;20387;-81
2022/06/03 06:27:04;;;;;;;16.20;10.57;;;;;;;;;;6272673;22;20406;-82
2022/06/03 06:29:48;;;;;;;14.52;11.50;;;;;;;;;;6273491;22;19999;-82
2022/06/03 06:32:58;;;;;;;13.70;8.73;;;;;;;;;;6274221;22;20003;-85
2022/06/03 06:35:54;;;;;;;30.77;18.27;;;;;;;;;;6216389;22;20007;-82
2022/06/03 06:38:39;;;;;;;14.63;9.68;;;;;;;;;;6248771;22;20053;-83
2022/06/03 06:41:27;;;;;;;13.40;8.13;;;;;;;;;;6248960;22;20008;-81
2022/06/03 06:44:08;;;;;;;16.40;8.60;;;;;;;;;;6204042;22;20014;-82
2022/06/03 06:47:01;;;;;;;14.32;9.13;;;;;;;;;;6277474;22;20007;-82
2022/06/03 06:49:30;;;;;;;15.20;9.95;;;;;;;;;;6224046;22;20012;-83
2022/06/03 06:52:14;;;;;;;14.20;8.40;;;;;;;;;;6223439;22;19999;-81
2022/06/03 06:54:58;;;;;;;12.15;7.82;;;;;;;;;;6276801;22;20430;-83
2022/06/03 06:57:25;;;;;;;12.95;8.45;;;;;;;;;;6278185;22;19995;-81
2022/06/03 07:00:24;;;;;;;11.80;8.55;;;;;;;;;;6246994;22;20003;-82
2022/06/03 07:02:54;;;;;;;15.55;7.78;;;;;;;;;;6219369;22;20018;-82
2022/06/03 07:05:28;;;;;;;10.68;8.25;;;;;;;;;;6244131;22;20454;-83
2022/06/03 07:08:23;;;;;;;11.10;8.07;;;;;;;;;;6245283;22;19999;-81
2022/06/03 07:10:52;;;;;;;11.50;7.32;;;;;;;;;;6226356;22;20004;-85
2022/06/03 07:13:36;;;;;;;11.68;8.30;;;;;;;;;;6289955;22;19996;-80
2022/06/03 07:16:14;;;;;;;13.10;9.35;;;;;;;;;;6228518;22;20022;-83
2022/06/03 07:21:51;;;;;;;15.18;9.82;;;;;;;;;;6275928;22;20030;-84
2022/06/03 07:24:20;;;;;;;20.80;13.68;;;;;;;;;;6279535;22;20014;-85
2022/06/03 07:26:50;;;;;;;16.42;10.52;;;;;;;;;;6252299;22;20000;-83
2022/06/03 07:29:25;;;;;;;13.30;8.38;;;;;;;;;;6248221;22;20007;-82
2022/06/03 07:32:12;;;;;;;14.82;8.02;;;;;;;;;;6247771;22;20472;-83
2022/06/03 07:34:46;;;;;;;15.25;9.95;;;;;;;;;;6273075;22;20061;-82
2022/06/03 07:37:19;;;;;;;12.80;10.80;;;;;;;;;;6247097;22;20273;-84
2022/06/03 07:40:04;;;;;;;15.18;8.43;;;;;;;;;;6244361;22;20010;-82
2022/06/03 07:42:47;;;;;;;13.57;10.07;;;;;;;;;;6272526;22;20000;-82
2022/06/03 07:45:18;;;;;;;10.27;8.35;;;;;;;;;;6273957;22;20011;-83
2022/06/03 07:47:44;;;;;;;20.85;11.02;;;;;;;;;;6273120;22;20000;-83
2022/06/03 07:50:15;;;;;;;14.48;9.43;;;;;;;;;;6269631;22;20032;-84
2022/06/03 07:52:46;;;;;;;15.25;10.70;;;;;;;;;;6243840;22;20000;-84
2022/06/03 07:55:16;;;;;;;16.25;8.88;;;;;;;;;;6272976;22;20305;-81
2022/06/03 07:57:51;;;;;;;14.95;9.25;;;;;;;;;;6283532;22;20066;-81
2022/06/03 08:00:18;;;;;;;17.85;12.80;;;;;;;;;;6220960;22;20004;-84
2022/06/03 08:03:04;;;;;;;16.70;10.40;;;;;;;;;;6244370;22;20011;-83
2022/06/03 08:05:30;;;;;;;16.25;8.20;;;;;;;;;;6279532;22;19999;-81
2022/06/03 08:10:58;;;;;;;11.68;8.55;;;;;;;;;;6271191;22;20122;-82
2022/06/03 08:13:27;;;;;;;18.85;8.77;;;;;;;;;;6272512;22;20007;-80
2022/06/03 08:16:05;;;;;;;18.48;9.40;;;;;;;;;;6270593;22;20008;-82
2022/06/03 08:18:33;;;;;;;12.98;9.80;;;;;;;;;;6223142;22;20007;-85
2022/06/03 08:21:04;;;;;;;9.43;7.70;;;;;;;;;;6248501;22;20445;-84
2022/06/03 08:23:33;;;;;;;12.77;8.70;;;;;;;;;;6272955;22;20083;-84
2022/06/03 08:26:04;;;;;;;14.15;8.30;;;;;;;;;;6245773;22;20433;-83
2022/06/03 08:28:31;;;;;;;15.98;8.70;;;;;;;;;;6248241;22;20381;-83
2022/06/03 08:30:56;;;;;;;12.85;8.70;;;;;;;;;;6269614;22;20011;-78
2022/06/03 08:33:34;;;;;;;20.50;8.40;;;;;;;;;;6245461;22;20004;-81
2022/06/03 08:35:59;;;;;;;11.52;8.82;;;;;;;;;;6270046;22;20019;-81
2022/06/03 08:38:32;;;;;;;16.50;8.50;;;;;;;;;;6273360;22;19996;-82
2022/06/03 08:41:06;;;;;;;14.35;8.77;;;;;;;;;;6253033;22;20011;-82
2022/06/03 08:43:50;;;;;;;15.00;8.90;;;;;;;;;;6222687;22;20015;-86
2022/06/03 08:46:28;;;;;;;19.65;10.48;;;;;;;;;;6271900;22;20038;-81
2022/06/03 08:49:12;;;;;;;13.38;9.20;;;;;;;;;;6253801;22;20063;-84
2022/06/03 08:51:53;;;;;;;14.30;8.70;;;;;;;;;;6286108;22;20000;-84
2022/06/03 08:54:31;;;;;;;21.40;9.30;;;;;;;;;;6231100;22;20015;-80
2022/06/03 08:57:01;;;;;;;12.77;8.27;;;;;;;;;;6287040;22;20079;-83
2022/06/03 08:59:38;;;;;;;12.45;7.97;;;;;;;;;;6253763;22;20004;-83
2022/06/03 09:02:09;;;;;;;13.07;7.70;;;;;;;;;;6268773;22;20504;-79
2022/06/03 09:04:48;;;;;;;13.10;8.52;;;;;;;;;;6250671;22;20100;-82
2022/06/03 09:07:26;;;;;;;10.32;8.30;;;;;;;;;;6249280;22;20065;-80
2022/06/03 09:10:17;;;;;;;14.77;7.17;;;;;;;;;;6269931;22;20018;-80
2022/06/03 09:13:04;;;;;;;13.80;8.02;;;;;;;;;;6267931;22;20015;-77
2022/06/03 09:15:34;;;;;;;9.90;8.07;;;;;;;;;;6270478;22;20003;-78
2022/06/03 09:18:24;;;;;;;18.88;7.47;;;;;;;;;;6242114;22;20422;-78
2022/06/03 09:20:56;;;;;;;18.63;8.48;;;;;;;;;;6217834;22;20007;-78
2022/06/03 09:23:22;;;;;;;18.13;12.68;;;;;;;;;;6273667;22;20007;-80
2022/06/03 09:25:49;;;;;;;13.90;9.30;;;;;;;;;;6219905;22;20434;-77
2022/06/03 09:28:27;;;;;;;16.37;7.60;;;;;;;;;;6219212;22;20014;-77
2022/06/03 09:30:53;;;;;;;15.07;8.70;;;;;;;;;;6244804;22;20004;-79
2022/06/03 09:33:20;;;;;;;15.20;8.35;;;;;;;;;;6221547;22;20261;-78
2022/06/03 09:35:47;;;;;;;15.13;8.40;;;;;;;;;;6224697;22;20004;-79
2022/06/03 09:38:13;;;;;;;13.23;8.23;;;;;;;;;;6249586;22;20014;-79
2022/06/03 09:40:41;;;;;;;17.60;8.20;;;;;;;;;;6221990;22;20007;-78
2022/06/03 09:43:45;;;;;;;14.18;8.63;;;;;;;;;;6252354;22;20042;-80
2022/06/03 09:46:14;;;;;;;17.55;10.25;;;;;;;;;;6151787;23;20009;-78
2022/06/03 09:48:41;;;;;;;;;;;;;;;;;;6231611;22;20007;-78
2022/06/03 09:51:09;;;;;;;13.27;7.75;;;;;;;;;;6249035;22;19918;-79
2022/06/03 09:53:36;;;;;;;15.90;8.27;;;;;;;;;;6276801;22;20054;-77
2022/06/03 09:56:04;;;;;;;12.23;8.07;;;;;;;;;;6243326;22;20086;-78
2022/06/03 09:58:31;;;;;;;15.63;7.50;;;;;;;;;;6220918;22;20098;-80
2022/06/03 10:00:57;;;;;;;16.75;9.02;;;;;;;;;;6246692;22;20078;-79
2022/06/03 10:03:24;;;;;;;18.50;7.70;;;;;;;;;;6277145;22;20007;-78
2022/06/03 10:05:51;;;;;;;18.10;10.52;;;;;;;;;;6225419;22;20003;-79
2022/06/03 10:08:20;;;;;;;11.90;7.00;;;;;;;;;;6222936;22;20021;-78
2022/06/03 10:13:37;;;;;;;12.57;6.57;;;;;;;;;;6258590;22;20149;-79
2022/06/03 10:16:05;;;;;;;12.30;7.47;;;;;;;;;;6251532;22;20057;-78
2022/06/03 10:18:42;;;;;;;11.82;6.80;;;;;;;;;;6251498;22;20027;-79
2022/06/03 10:21:07;;;;;;;14.32;7.07;;;;;;;;;;6248068;22;20402;-78
2022/06/03 10:23:35;;;;;;;10.73;6.70;;;;;;;;;;6272671;22;20008;-77
2022/06/03 10:26:01;;;;;;;12.23;6.80;;;;;;;;;;6271743;22;20040;-77
2022/06/03 10:28:32;;;;;;;13.23;7.22;;;;;;;;;;6272951;22;20241;-78
2022/06/03 10:31:00;;;;;;;20.63;7.80;;;;;;;;;;6277308;22;20011;-78
2022/06/03 10:33:27;;;;;;;10.20;6.30;;;;;;;;;;6227605;22;20090;-80
2022/06/03 10:36:02;;;;;;;12.77;6.88;;;;;;;;;;6274827;22;20004;-78
2022/06/03 10:38:31;;;;;;;13.75;6.68;;;;;;;;;;6273879;22;20066;-79
2022/06/03 10:40:56;;;;;;;11.77;7.00;;;;;;;;;;6271579;22;20366;-77
2022/06/03 10:43:24;;;;;;;14.75;7.10;;;;;;;;;;6271997;22;20008;-78
2022/06/03 10:45:50;;;;;;;7.90;6.25;;;;;;;;;;6269833;22;19996;-75
2022/06/03 10:48:19;;;;;;;9.30;6.55;;;;;;;;;;6273409;22;20296;-78
2022/06/03 10:50:50;;;;;;;10.13;7.22;;;;;;;;;;6272801;22;19995;-77
2022/06/03 11:02:14;;;;;;;14.00;6.63;;;;;;;;;;6273421;22;20109;-77
2022/06/03 11:04:39;;;;;;;12.65;6.80;;;;;;;;;;6275513;22;20028;-80
2022/06/03 11:07:23;;;;;;;12.25;7.20;;;;;;;;;;6279678;22;19996;-79
2022/06/03 11:10:00;;;;;;;13.02;7.07;;;;;;;;;;6281163;22;20445;-82
2022/06/03 11:12:28;;;;;;;13.02;7.57;;;;;;;;;;6275699;22;20588;-82
2022/06/03 11:14:57;;;;;;;14.07;8.65;;;;;;;;;;6277132;22;20003;-80
2022/06/03 11:17:31;;;;;;;12.68;9.43;;;;;;;;;;6277204;22;20015;-80
2022/06/03 11:19:58;;;;;;;9.77;7.40;;;;;;;;;;6276785;22;20090;-79
2022/06/03 11:22:36;;;;;;;12.48;7.07;;;;;;;;;;6248619;22;20066;-79
2022/06/03 11:25:27;;;;;;;9.13;7.22;;;;;;;;;;6224991;22;20061;-79
2022/06/03 11:28:32;;;;;;;12.85;7.13;;;;;;;;;;6250296;22;20449;-82
2022/06/03 11:31:03;;;;;;;11.80;7.15;;;;;;;;;;6238489;22;20039;-82
2022/06/03 11:33:36;;;;;;;12.48;9.20;;;;;;;;;;6249700;22;20000;-83
2022/06/03 11:36:20;;;;;;;18.10;10.38;;;;;;;;;;6248832;22;20053;-83
2022/06/03 11:38:51;;;;;;;19.13;10.30;;;;;;;;;;6275797;22;20000;-82
2022/06/03 11:41:25;;;;;;;11.32;9.45;;;;;;;;;;6224871;22;20003;-81
2022/06/03 11:43:59;;;;;;;17.20;9.25;;;;;;;;;;6247250;22;20061;-82
2022/06/03 11:46:31;;;;;;;12.43;10.23;;;;;;;;;;6247461;22;20010;-83
2022/06/03 11:48:57;;;;;;;13.18;10.48;;;;;;;;;;6224866;22;19996;-82
2022/06/03 11:51:23;;;;;;;22.13;13.00;;;;;;;;;;6274650;22;20011;-82
2022/06/03 11:53:48;;;;;;;16.38;9.25;;;;;;;;;;6223644;22;19992;-84
2022/06/03 11:56:21;;;;;;;13.70;10.27;;;;;;;;;;6277103;22;20008;-84
2022/06/03 11:58:49;;;;;;;26.10;16.02;;;;;;;;;;6247623;22;20026;-84
2022/06/03 12:01:20;;;;;;;17.70;12.60;;;;;;;;;;6248084;22;20038;-85
2022/06/03 12:03:55;;;;;;;17.23;11.43;;;;;;;;;;6248781;22;20004;-81
2022/06/03 12:06:42;;;;;;;13.05;8.60;;;;;;;;;;6248556;22;20034;-84
2022/06/03 12:09:36;;;;;;;29.08;16.40;;;;;;;;;;6224665;22;20389;-84
2022/06/03 12:15:30;;;;;;;14.05;8.18;;;;;;;;;;6252640;22;20019;-82
2022/06/03 12:18:16;;;;;;;14.27;8.05;;;;;;;;;;6286457;22;20004;-84
2022/06/03 12:20:48;;;;;;;16.05;9.20;;;;;;;;;;6247852;22;20043;-82
2022/06/03 12:23:13;;;;;;;16.15;8.43;;;;;;;;;;6275701;22;20004;-84
2022/06/03 12:25:57;;;;;;;19.42;9.40;;;;;;;;;;6275515;22;20422;-83
2022/06/03 12:28:37;;;;;;;11.77;7.65;;;;;;;;;;6276212;22;20003;-83
2022/06/03 12:31:17;;;;;;;13.27;8.05;;;;;;;;;;6275850;22;20004;-83
2022/06/03 12:33:52;;;;;;;14.23;9.85;;;;;;;;;;6274912;22;20000;-83
2022/06/03 12:36:24;;;;;;;21.65;10.68;;;;;;;;;;6248906;22;20004;-83
2022/06/03 12:39:11;;;;;;;18.60;12.05;;;;;;;;;;6281969;22;20027;-80
2022/06/03 12:41:46;;;;;;;15.60;8.45;;;;;;;;;;6249926;22;20007;-87
2022/06/03 12:44:39;;;;;;;11.45;8.05;;;;;;;;;;6275466;22;20011;-84
2022/06/03 12:47:31;;;;;;;12.68;8.43;;;;;;;;;;6275567;22;20058;-82
2022/06/03 12:50:15;;;;;;;14.25;8.45;;;;;;;;;;6275409;22;20480;-82
2022/06/03 12:52:42;;;;;;;16.48;8.30;;;;;;;;;;6275281;22;20014;-83
2022/06/03 12:55:27;;;;;;;21.83;9.77;;;;;;;;;;6222982;22;20015;-83
2022/06/03 12:57:58;;;;;;;15.52;8.88;;;;;;;;;;6248372;22;20003;-82
2022/06/03 13:00:50;;;;;;;15.68;8.82;;;;;;;;;;6261519;22;20010;-82
2022/06/03 13:03:16;;;;;;;12.90;8.02;;;;;;;;;;6256699;22;20011;-82
2022/06/03 13:05:42;;;;;;;18.58;9.02;;;;;;;;;;6258350;22;20008;-82
2022/06/03 13:08:27;;;;;;;14.52;9.23;;;;;;;;;;6285754;22;20011;-83
2022/06/03 13:11:06;;;;;;;18.15;8.93;;;;;;;;;;6255944;22;20445;-82
2022/06/03 13:13:34;;;;;;;14.02;8.98;;;;;;;;;;6199368;22;20398;-82
2022/06/03 13:16:00;;;;;;;14.75;8.65;;;;;;;;;;6249496;22;20363;-83
2022/06/03 13:18:47;;;;;;;14.25;8.25;;;;;;;;;;6275177;22;20019;-82
2022/06/03 13:21:15;;;;;;;18.38;8.50;;;;;;;;;;6174011;22;20007;-83
2022/06/03 13:23:45;;;;;;;15.73;8.38;;;;;;;;;;6250420;22;20033;-83
2022/06/03 13:26:22;;;;;;;13.75;8.80;;;;;;;;;;6274953;22;20038;-83
2022/06/03 13:28:52;;;;;;;12.50;8.50;;;;;;;;;;6274981;22;19995;-82
2022/06/03 13:31:26;;;;;;;;;;;;;;;;;;6275582;22;20137;-83
2022/06/03 13:34:12;;;;;;;18.17;8.95;;;;;;;;;;6274940;22;19903;-82
2022/06/03 13:36:47;;;;;;;17.65;8.60;;;;;;;;;;6274691;22;19996;-83
2022/06/03 13:39:14;;;;;;;18.65;8.73;;;;;;;;;;6273855;22;20006;-82
2022/06/03 13:44:40;;;;;;;17.27;7.97;;;;;;;;;;6251674;22;20014;-83
2022/06/03 13:47:11;;;;;;;17.42;8.43;;;;;;;;;;6281965;22;20004;-83
2022/06/03 13:49:39;;;;;;;17.17;8.25;;;;;;;;;;6223042;22;20345;-82
2022/06/03 13:52:08;;;;;;;11.40;9.02;;;;;;;;;;6274893;22;20000;-83
2022/06/03 13:54:38;;;;;;;14.93;8.07;;;;;;;;;;6274464;22;20007;-82
2022/06/03 13:57:14;;;;;;;13.05;9.05;;;;;;;;;;6246622;22;20000;-82
2022/06/03 13:59:41;;;;;;;14.20;8.73;;;;;;;;;;6221899;22;20417;-83
2022/06/03 14:02:34;;;;;;;13.55;8.43;;;;;;;;;;6247600;22;20003;-83
2022/06/03 14:05:02;;;;;;;26.88;11.27;;;;;;;;;;6223868;22;20369;-83
2022/06/03 14:07:40;;;;;;;15.05;8.90;;;;;;;;;;6247211;22;20000;-83
2022/06/03 14:10:27;;;;;;;13.70;8.52;;;;;;;;;;6231000;22;20003;-83
2022/06/03 14:13:24;;;;;;;13.30;8.80;;;;;;;;;;6251884;22;20014;-83
2022/06/03 14:16:08;;;;;;;13.07;7.72;;;;;;;;;;6225965;22;20007;-82
2022/06/03 14:18:47;;;;;;;18.25;8.35;;;;;;;;;;6247835;22;20316;-83
2022/06/03 14:21:33;;;;;;;15.40;8.43;;;;;;;;;;6222857;22;20090;-82
2022/06/03 14:24:04;;;;;;;15.75;8.00;;;;;;;;;;6222250;22;20008;-83
2022/06/03 14:26:36;;;;;;;14.50;8.20;;;;;;;;;;6247519;22;20004;-82
2022/06/03 14:29:06;;;;;;;15.48;8.40;;;;;;;;;;6247528;22;19995;-83
2022/06/03 14:31:54;;;;;;;13.90;8.55;;;;;;;;;;6223885;22;20347;-83
2022/06/03 14:34:22;;;;;;;15.80;8.27;;;;;;;;;;6248697;22;20096;-82
2022/06/03 14:36:48;;;;;;;13.00;7.47;;;;;;;;;;6222519;22;20012;-83
2022/06/03 14:39:22;;;;;;;10.18;6.78;;;;;;;;;;6197546;22;20006;-82
2022/06/03 14:41:51;;;;;;;11.73;7.38;;;;;;;;;;6197912;22;20004;-82
2022/06/03 14:44:18;;;;;;;10.02;7.03;;;;;;;;;;6198102;22;20004;-82
2022/06/03 14:46:49;;;;;;;9.30;6.75;;;;;;;;;;6197224;22;20027;-83
2022/06/03 14:49:19;;;;;;;12.55;6.47;;;;;;;;;;6247085;22;20415;-83
2022/06/03 14:51:48;;;;;;;;;;;;;;;;;;6223214;22;20004;-84
2022/06/03 14:54:49;;;;;;;11.82;6.45;;;;;;;;;;6249578;22;19931;-82
2022/06/03 14:57:22;;;;;;;10.10;6.60;;;;;;;;;;6243990;22;20019;-83
2022/06/03 15:00:10;;;;;;;15.65;8.38;;;;;;;;;;6224501;22;20007;-83
2022/06/03 15:02:42;;;;;;;15.88;6.25;;;;;;;;;;6276645;22;20000;-83
2022/06/03 15:05:23;;;;;;;11.45;6.40;;;;;;;;;;6249235;22;20003;-83
2022/06/03 15:07:58;;;;;;;12.90;6.40;;;;;;;;;;6249190;22;20074;-82
2022/06/03 15:10:24;;;;;;;10.90;6.35;;;;;;;;;;6249007;22;20335;-83
2022/06/03 15:12:56;;;;;;;11.93;7.78;;;;;;;;;;6248538;22;20026;-82
2022/06/03 15:15:32;;;;;;;14.32;7.28;;;;;;;;;;6277048;22;20008;-83
2022/06/03 15:18:14;;;;;;;15.23;7.45;;;;;;;;;;6279914;22;20004;-82
2022/06/03 15:20:43;;;;;;;15.60;6.93;;;;;;;;;;6277856;22;20004;-83
2022/06/03 15:23:08;;;;;;;10.88;6.95;;;;;;;;;;6224641;22;20067;-82
2022/06/03 15:25:47;;;;;;;12.68;6.82;;;;;;;;;;6248982;22;20110;-83
2022/06/03 15:28:13;;;;;;;17.47;6.90;;;;;;;;;;6225487;22;20361;-82
2022/06/03 15:30:41;;;;;;;11.65;6.65;;;;;;;;;;6223746;22;20007;-83
2022/06/03 15:33:17;;;;;;;11.00;6.80;;;;;;;;;;6199270;22;19996;-84
2022/06/03 15:35:43;;;;;;;13.27;7.00;;;;;;;;;;6250633;22;20010;-83
2022/06/03 15:38:13;;;;;;;11.73;7.15;;;;;;;;;;6199043;22;20039;-83
2022/06/03 15:40:39;;;;;;;10.30;6.55;;;;;;;;;;6253439;22;20010;-81
2022/06/03 15:43:08;;;;;;;13.63;6.80;;;;;;;;;;6202789;22;20031;-83
2022/06/03 15:45:37;;;;;;;11.27;6.38;;;;;;;;;;6250494;22;20010;-82
2022/06/03 15:48:22;;;;;;;;;;;;;;;;;;6278438;22;19996;-83
2022/06/03 15:51:08;;;;;;;11.63;6.47;;;;;;;;;;6249382;22;20029;-82
2022/06/03 15:53:47;;;;;;;10.05;6.30;;;;;;;;;;6225453;22;20008;-82
2022/06/03 15:56:12;;;;;;;13.07;6.25;;;;;;;;;;6273021;22;20006;-83
2022/06/03 15:59:06;;;;;;;15.57;6.75;;;;;;;;;;6286588;22;19996;-82
2022/06/03 16:01:57;;;;;;;10.93;6.07;;;;;;;;;;6256867;22;20007;-82